sensor_id;sensor_type;location;lat;lon;timestamp;pressure;altitude;pressure_sealevel;temperature;humidity
4981;BME280;2507;50.392;7.482;2023-04-07T00:01:01;100666.50;;;10.29;81.23
4981;BME280;2507;50.392;7.482;2023-04-07T00:03:26;100666.47;;;10.54;80.83
4981;BME280;2507;50.392;7.482;2023-04-07T00:05:51;100655.09;;;10.79;78.82
4981;BME280;2507;50.392;7.482;2023-04-07T00:08:17;100665.91;;;10.87;77.68
4981;BME280;2507;50.392;7.482;2023-04-07T00:10:42;100671.25;;;10.85;78.02
4981;BME280;2507;50.392;7.482;2023-04-07T00:13:07;100654.81;;;10.71;78.69
4981;BME280;2507;50.392;7.482;2023-04-07T00:15:33;100653.84;;;10.72;78.65
4981;BME280;2507;50.392;7.482;2023-04-07T00:17:58;100663.28;;;10.87;77.93
4981;BME280;2507;50.392;7.482;2023-04-07T00:20:23;100652.47;;;10.79;78.60
4981;BME280;2507;50.392;7.482;2023-04-07T00:22:49;100658.06;;;10.74;78.96
4981;BME280;2507;50.392;7.482;2023-04-07T00:25:14;100647.53;;;10.87;78.55
4981;BME280;2507;50.392;7.482;2023-04-07T00:27:39;100648.88;;;10.92;78.77
4981;BME280;2507;50.392;7.482;2023-04-07T00:30:05;100646.44;;;10.89;78.96
4981;BME280;2507;50.392;7.482;2023-04-07T00:32:31;100639.44;;;11.13;77.61
4981;BME280;2507;50.392;7.482;2023-04-07T00:34:56;100638.50;;;11.14;76.90
4981;BME280;2507;50.392;7.482;2023-04-07T00:37:21;100632.78;;;11.20;77.15
4981;BME280;2507;50.392;7.482;2023-04-07T00:39:47;100629.59;;;11.28;76.22
4981;BME280;2507;50.392;7.482;2023-04-07T00:42:13;100631.22;;;10.94;77.11
4981;BME280;2507;50.392;7.482;2023-04-07T00:44:38;100626.34;;;10.77;78.33
4981;BME280;2507;50.392;7.482;2023-04-07T00:47:03;100626.88;;;10.70;78.70
4981;BME280;2507;50.392;7.482;2023-04-07T00:49:29;100616.53;;;10.56;79.34
4981;BME280;2507;50.392;7.482;2023-04-07T00:51:56;100615.25;;;10.61;79.72
4981;BME280;2507;50.392;7.482;2023-04-07T00:54:24;100613.16;;;10.54;79.83
4981;BME280;2507;50.392;7.482;2023-04-07T00:56:51;100616.56;;;10.31;80.72
4981;BME280;2507;50.392;7.482;2023-04-07T00:59:17;100607.53;;;10.09;81.94
4981;BME280;2507;50.392;7.482;2023-04-07T01:01:54;100601.63;;;10.06;82.40
4981;BME280;2507;50.392;7.482;2023-04-07T01:07:10;100598.09;;;10.19;83.04
4981;BME280;2507;50.392;7.482;2023-04-07T01:09:43;100599.47;;;10.25;82.35
4981;BME280;2507;50.392;7.482;2023-04-07T01:14:46;100597.72;;;10.49;82.05
4981;BME280;2507;50.392;7.482;2023-04-07T01:17:15;100600.13;;;10.65;80.82
4981;BME280;2507;50.392;7.482;2023-04-07T01:20:02;100590.00;;;10.71;80.35
4981;BME280;2507;50.392;7.482;2023-04-07T01:22:45;100586.22;;;10.75;80.25
4981;BME280;2507;50.392;7.482;2023-04-07T01:30:50;100583.13;;;11.17;77.77
4981;BME280;2507;50.392;7.482;2023-04-07T01:33:17;100575.91;;;11.32;76.34
4981;BME280;2507;50.392;7.482;2023-04-07T01:35:45;100571.75;;;11.17;76.72
4981;BME280;2507;50.392;7.482;2023-04-07T01:38:11;100573.72;;;11.26;76.23
4981;BME280;2507;50.392;7.482;2023-04-07T01:40:38;100572.78;;;11.03;76.39
4981;BME280;2507;50.392;7.482;2023-04-07T01:43:05;100585.75;;;10.94;77.26
4981;BME280;2507;50.392;7.482;2023-04-07T01:45:31;100570.00;;;10.94;77.70
4981;BME280;2507;50.392;7.482;2023-04-07T01:47:59;100573.22;;;10.97;77.84
4981;BME280;2507;50.392;7.482;2023-04-07T01:50:25;100576.66;;;11.10;77.44
4981;BME280;2507;50.392;7.482;2023-04-07T01:52:52;100578.53;;;11.08;77.21
4981;BME280;2507;50.392;7.482;2023-04-07T01:55:18;100566.41;;;10.95;77.43
4981;BME280;2507;50.392;7.482;2023-04-07T01:57:43;100573.38;;;10.60;79.68
4981;BME280;2507;50.392;7.482;2023-04-07T02:00:08;100573.00;;;10.41;80.70
4981;BME280;2507;50.392;7.482;2023-04-07T02:02:40;100571.19;;;10.54;81.09
4981;BME280;2507;50.392;7.482;2023-04-07T02:05:08;100571.50;;;10.62;80.71
4981;BME280;2507;50.392;7.482;2023-04-07T02:10:02;100568.59;;;10.77;79.91
4981;BME280;2507;50.392;7.482;2023-04-07T02:12:29;100569.50;;;10.89;79.09
4981;BME280;2507;50.392;7.482;2023-04-07T02:14:56;100561.69;;;10.76;79.30
4981;BME280;2507;50.392;7.482;2023-04-07T02:17:23;100569.63;;;10.75;79.94
4981;BME280;2507;50.392;7.482;2023-04-07T02:19:51;100560.16;;;10.85;79.85
4981;BME280;2507;50.392;7.482;2023-04-07T02:22:18;100562.50;;;10.77;79.48
4981;BME280;2507;50.392;7.482;2023-04-07T02:24:43;100566.84;;;10.65;80.54
4981;BME280;2507;50.392;7.482;2023-04-07T02:27:08;100561.59;;;10.65;80.75
4981;BME280;2507;50.392;7.482;2023-04-07T02:29:33;100569.09;;;10.46;81.29
4981;BME280;2507;50.392;7.482;2023-04-07T02:31:59;100566.81;;;10.42;82.01
4981;BME280;2507;50.392;7.482;2023-04-07T02:34:24;100568.16;;;10.47;82.02
4981;BME280;2507;50.392;7.482;2023-04-07T02:36:49;100565.31;;;10.50;82.04
4981;BME280;2507;50.392;7.482;2023-04-07T02:39:15;100566.84;;;10.65;81.49
4981;BME280;2507;50.392;7.482;2023-04-07T02:41:40;100564.38;;;10.75;81.02
4981;BME280;2507;50.392;7.482;2023-04-07T02:44:06;100562.84;;;10.72;80.44
4981;BME280;2507;50.392;7.482;2023-04-07T02:46:31;100563.56;;;10.74;81.29
4981;BME280;2507;50.392;7.482;2023-04-07T02:48:56;100567.53;;;10.80;80.70
4981;BME280;2507;50.392;7.482;2023-04-07T02:51:22;100560.78;;;10.88;80.48
4981;BME280;2507;50.392;7.482;2023-04-07T02:53:47;100566.59;;;11.04;79.63
4981;BME280;2507;50.392;7.482;2023-04-07T02:56:12;100566.34;;;11.07;79.60
4981;BME280;2507;50.392;7.482;2023-04-07T02:58:37;100563.72;;;11.07;79.64
4981;BME280;2507;50.392;7.482;2023-04-07T03:01:03;100555.84;;;11.07;78.99
4981;BME280;2507;50.392;7.482;2023-04-07T03:03:29;100556.31;;;11.01;79.41
4981;BME280;2507;50.392;7.482;2023-04-07T03:05:54;100563.56;;;10.98;79.51
4981;BME280;2507;50.392;7.482;2023-04-07T03:08:19;100562.66;;;10.86;80.17
4981;BME280;2507;50.392;7.482;2023-04-07T03:10:45;100559.50;;;10.94;80.63
4981;BME280;2507;50.392;7.482;2023-04-07T03:13:10;100553.00;;;11.10;79.43
4981;BME280;2507;50.392;7.482;2023-04-07T03:15:40;100555.84;;;11.07;79.28
4981;BME280;2507;50.392;7.482;2023-04-07T03:18:05;100558.41;;;10.96;79.76
4981;BME280;2507;50.392;7.482;2023-04-07T03:20:30;100557.84;;;10.80;80.13
4981;BME280;2507;50.392;7.482;2023-04-07T03:22:56;100560.84;;;10.76;81.27
4981;BME280;2507;50.392;7.482;2023-04-07T03:25:22;100569.69;;;10.86;80.28
4981;BME280;2507;50.392;7.482;2023-04-07T03:27:47;100556.81;;;10.83;80.92
4981;BME280;2507;50.392;7.482;2023-04-07T03:30:12;100562.19;;;10.81;81.10
4981;BME280;2507;50.392;7.482;2023-04-07T03:32:37;100552.72;;;10.79;81.36
4981;BME280;2507;50.392;7.482;2023-04-07T03:35:03;100556.19;;;10.79;81.44
4981;BME280;2507;50.392;7.482;2023-04-07T03:37:28;100564.72;;;10.70;81.88
4981;BME280;2507;50.392;7.482;2023-04-07T03:39:53;100555.97;;;10.82;81.83
4981;BME280;2507;50.392;7.482;2023-04-07T03:42:19;100559.94;;;10.88;81.44
4981;BME280;2507;50.392;7.482;2023-04-07T03:44:44;100560.84;;;10.76;81.39
4981;BME280;2507;50.392;7.482;2023-04-07T03:47:10;100561.88;;;10.73;82.16
4981;BME280;2507;50.392;7.482;2023-04-07T03:49:35;100553.34;;;10.82;81.55
4981;BME280;2507;50.392;7.482;2023-04-07T03:52:02;100548.81;;;10.84;81.51
4981;BME280;2507;50.392;7.482;2023-04-07T03:54:28;100556.56;;;10.86;81.34
4981;BME280;2507;50.392;7.482;2023-04-07T03:56:53;100554.47;;;10.91;81.04
4981;BME280;2507;50.392;7.482;2023-04-07T03:59:18;100551.88;;;11.02;80.56
4981;BME280;2507;50.392;7.482;2023-04-07T04:01:44;100564.13;;;10.90;80.57
4981;BME280;2507;50.392;7.482;2023-04-07T04:04:09;100571.97;;;10.31;83.41
4981;BME280;2507;50.392;7.482;2023-04-07T04:06:34;100559.69;;;10.06;85.57
4981;BME280;2507;50.392;7.482;2023-04-07T04:09:00;100557.69;;;10.22;84.76
4981;BME280;2507;50.392;7.482;2023-04-07T04:11:25;100552.78;;;10.30;85.25
4981;BME280;2507;50.392;7.482;2023-04-07T04:13:51;100561.03;;;10.37;84.19
4981;BME280;2507;50.392;7.482;2023-04-07T04:16:16;100564.09;;;10.05;85.67
4981;BME280;2507;50.392;7.482;2023-04-07T04:18:41;100567.41;;;10.09;86.12
4981;BME280;2507;50.392;7.482;2023-04-07T04:21:07;100567.03;;;10.26;85.38
4981;BME280;2507;50.392;7.482;2023-04-07T04:23:32;100563.69;;;10.24;85.07
4981;BME280;2507;50.392;7.482;2023-04-07T04:25:57;100560.94;;;10.25;85.55
4981;BME280;2507;50.392;7.482;2023-04-07T04:28:24;100559.56;;;10.45;84.60
4981;BME280;2507;50.392;7.482;2023-04-07T04:30:49;100557.78;;;10.69;84.42
4981;BME280;2507;50.392;7.482;2023-04-07T04:33:14;100569.31;;;10.43;83.70
4981;BME280;2507;50.392;7.482;2023-04-07T04:35:40;100570.78;;;10.35;85.16
4981;BME280;2507;50.392;7.482;2023-04-07T04:38:05;100569.19;;;10.57;84.83
4981;BME280;2507;50.392;7.482;2023-04-07T04:40:31;100569.91;;;10.59;83.97
4981;BME280;2507;50.392;7.482;2023-04-07T04:42:56;100569.97;;;10.70;83.60
4981;BME280;2507;50.392;7.482;2023-04-07T04:45:21;100567.06;;;10.86;83.48
4981;BME280;2507;50.392;7.482;2023-04-07T04:47:47;100577.81;;;10.83;83.42
4981;BME280;2507;50.392;7.482;2023-04-07T04:50:12;100579.47;;;10.84;82.47
4981;BME280;2507;50.392;7.482;2023-04-07T04:52:37;100569.94;;;10.83;82.94
4981;BME280;2507;50.392;7.482;2023-04-07T04:55:05;100574.38;;;10.70;84.04
4981;BME280;2507;50.392;7.482;2023-04-07T04:57:30;100573.53;;;10.69;83.28
4981;BME280;2507;50.392;7.482;2023-04-07T04:59:55;100575.28;;;10.58;83.94
4981;BME280;2507;50.392;7.482;2023-04-07T05:02:21;100580.31;;;10.48;84.11
4981;BME280;2507;50.392;7.482;2023-04-07T05:04:46;100582.38;;;10.68;83.96
4981;BME280;2507;50.392;7.482;2023-04-07T05:07:11;100585.94;;;10.67;82.87
4981;BME280;2507;50.392;7.482;2023-04-07T05:09:36;100592.16;;;10.54;83.50
4981;BME280;2507;50.392;7.482;2023-04-07T05:12:02;100594.06;;;10.52;84.22
4981;BME280;2507;50.392;7.482;2023-04-07T05:14:27;100588.50;;;10.56;84.21
4981;BME280;2507;50.392;7.482;2023-04-07T05:16:52;100588.78;;;10.64;84.35
4981;BME280;2507;50.392;7.482;2023-04-07T05:19:19;100596.13;;;10.72;84.15
4981;BME280;2507;50.392;7.482;2023-04-07T05:21:44;100591.13;;;10.92;84.17
4981;BME280;2507;50.392;7.482;2023-04-07T05:24:10;100591.31;;;11.13;82.53
4981;BME280;2507;50.392;7.482;2023-04-07T05:26:35;100586.53;;;11.07;81.37
4981;BME280;2507;50.392;7.482;2023-04-07T05:29:00;100590.38;;;11.14;82.32
4981;BME280;2507;50.392;7.482;2023-04-07T05:31:26;100599.25;;;11.00;82.01
4981;BME280;2507;50.392;7.482;2023-04-07T05:33:51;100600.03;;;11.13;81.88
4981;BME280;2507;50.392;7.482;2023-04-07T05:36:17;100610.38;;;11.04;82.09
4981;BME280;2507;50.392;7.482;2023-04-07T05:38:43;100603.84;;;11.09;82.50
4981;BME280;2507;50.392;7.482;2023-04-07T05:41:08;100602.97;;;11.21;80.37
4981;BME280;2507;50.392;7.482;2023-04-07T05:43:34;100604.13;;;11.17;80.78
4981;BME280;2507;50.392;7.482;2023-04-07T05:45:59;100610.59;;;11.24;80.80
4981;BME280;2507;50.392;7.482;2023-04-07T05:48:24;100596.50;;;11.14;79.90
4981;BME280;2507;50.392;7.482;2023-04-07T05:50:50;100597.78;;;11.20;80.22
4981;BME280;2507;50.392;7.482;2023-04-07T05:53:15;100604.31;;;11.27;79.57
4981;BME280;2507;50.392;7.482;2023-04-07T05:55:43;100604.63;;;11.22;79.34
4981;BME280;2507;50.392;7.482;2023-04-07T05:58:09;100612.50;;;10.99;80.61
4981;BME280;2507;50.392;7.482;2023-04-07T06:00:35;100608.41;;;10.95;81.03
4981;BME280;2507;50.392;7.482;2023-04-07T06:03:00;100619.66;;;10.97;80.53
4981;BME280;2507;50.392;7.482;2023-04-07T06:05:26;100611.94;;;10.83;81.54
4981;BME280;2507;50.392;7.482;2023-04-07T06:07:51;100639.69;;;10.74;81.99
4981;BME280;2507;50.392;7.482;2023-04-07T06:10:18;100623.63;;;10.66;83.06
4981;BME280;2507;50.392;7.482;2023-04-07T06:12:43;100625.13;;;10.58;83.66
4981;BME280;2507;50.392;7.482;2023-04-07T06:15:09;100620.38;;;10.63;83.04
4981;BME280;2507;50.392;7.482;2023-04-07T06:17:34;100625.25;;;10.56;84.06
4981;BME280;2507;50.392;7.482;2023-04-07T06:20:00;100625.44;;;10.53;83.94
4981;BME280;2507;50.392;7.482;2023-04-07T06:22:25;100640.16;;;10.43;84.75
4981;BME280;2507;50.392;7.482;2023-04-07T06:24:50;100636.69;;;10.43;84.90
4981;BME280;2507;50.392;7.482;2023-04-07T06:27:16;100633.94;;;10.44;84.87
4981;BME280;2507;50.392;7.482;2023-04-07T06:29:42;100634.06;;;10.43;84.45
4981;BME280;2507;50.392;7.482;2023-04-07T06:32:07;100632.16;;;10.45;84.42
4981;BME280;2507;50.392;7.482;2023-04-07T06:34:33;100647.56;;;10.49;84.96
4981;BME280;2507;50.392;7.482;2023-04-07T06:36:58;100633.81;;;10.58;84.77
4981;BME280;2507;50.392;7.482;2023-04-07T06:39:25;100635.50;;;10.59;83.86
4981;BME280;2507;50.392;7.482;2023-04-07T06:41:51;100640.66;;;10.48;83.92
4981;BME280;2507;50.392;7.482;2023-04-07T06:44:16;100652.81;;;10.49;84.50
4981;BME280;2507;50.392;7.482;2023-04-07T06:46:41;100648.94;;;10.55;84.00
4981;BME280;2507;50.392;7.482;2023-04-07T06:49:08;100653.75;;;10.61;83.42
4981;BME280;2507;50.392;7.482;2023-04-07T06:51:33;100648.81;;;10.69;82.84
4981;BME280;2507;50.392;7.482;2023-04-07T06:53:58;100651.13;;;10.61;82.61
4981;BME280;2507;50.392;7.482;2023-04-07T06:56:24;100646.03;;;10.47;82.81
4981;BME280;2507;50.392;7.482;2023-04-07T06:58:50;100657.44;;;10.46;83.75
4981;BME280;2507;50.392;7.482;2023-04-07T07:01:15;100655.88;;;10.56;83.16
4981;BME280;2507;50.392;7.482;2023-04-07T07:03:40;100660.63;;;10.51;83.23
4981;BME280;2507;50.392;7.482;2023-04-07T07:06:05;100660.91;;;10.46;83.66
4981;BME280;2507;50.392;7.482;2023-04-07T07:08:31;100663.75;;;10.43;83.55
4981;BME280;2507;50.392;7.482;2023-04-07T07:10:56;100669.41;;;10.50;83.75
4981;BME280;2507;50.392;7.482;2023-04-07T07:13:23;100672.78;;;10.52;84.03
4981;BME280;2507;50.392;7.482;2023-04-07T07:15:50;100671.63;;;10.56;83.45
4981;BME280;2507;50.392;7.482;2023-04-07T07:18:16;100676.75;;;10.45;84.16
4981;BME280;2507;50.392;7.482;2023-04-07T07:20:41;100679.28;;;10.46;84.14
4981;BME280;2507;50.392;7.482;2023-04-07T07:23:07;100693.97;;;10.49;84.17
4981;BME280;2507;50.392;7.482;2023-04-07T07:25:32;100701.31;;;10.44;84.41
4981;BME280;2507;50.392;7.482;2023-04-07T07:27:57;100678.34;;;10.60;84.77
4981;BME280;2507;50.392;7.482;2023-04-07T07:30:23;100688.50;;;10.64;83.53
4981;BME280;2507;50.392;7.482;2023-04-07T07:32:49;100687.47;;;10.67;83.17
4981;BME280;2507;50.392;7.482;2023-04-07T07:35:14;100689.56;;;10.62;83.48
4981;BME280;2507;50.392;7.482;2023-04-07T07:37:40;100689.47;;;10.51;83.80
4981;BME280;2507;50.392;7.482;2023-04-07T07:40:06;100695.44;;;10.40;84.19
4981;BME280;2507;50.392;7.482;2023-04-07T07:42:31;100705.09;;;10.40;84.96
4981;BME280;2507;50.392;7.482;2023-04-07T07:44:57;100713.38;;;10.34;85.29
4981;BME280;2507;50.392;7.482;2023-04-07T07:47:22;100699.94;;;10.25;85.91
4981;BME280;2507;50.392;7.482;2023-04-07T07:49:48;100710.03;;;10.32;86.05
4981;BME280;2507;50.392;7.482;2023-04-07T07:52:13;100713.91;;;10.39;86.03
4981;BME280;2507;50.392;7.482;2023-04-07T07:54:38;100717.88;;;10.44;85.49
4981;BME280;2507;50.392;7.482;2023-04-07T07:57:04;100711.50;;;10.48;84.86
4981;BME280;2507;50.392;7.482;2023-04-07T07:59:30;100715.78;;;10.49;84.54
4981;BME280;2507;50.392;7.482;2023-04-07T08:01:56;100718.63;;;10.46;84.62
4981;BME280;2507;50.392;7.482;2023-04-07T08:04:21;100725.56;;;10.47;84.61
4981;BME280;2507;50.392;7.482;2023-04-07T08:06:47;100726.09;;;10.40;85.22
4981;BME280;2507;50.392;7.482;2023-04-07T08:09:13;100727.97;;;10.50;84.57
4981;BME280;2507;50.392;7.482;2023-04-07T08:11:38;100732.25;;;10.39;84.98
4981;BME280;2507;50.392;7.482;2023-04-07T08:14:04;100731.13;;;10.43;84.86
4981;BME280;2507;50.392;7.482;2023-04-07T08:16:29;100740.13;;;10.39;85.18
4981;BME280;2507;50.392;7.482;2023-04-07T08:18:55;100733.63;;;10.32;85.47
4981;BME280;2507;50.392;7.482;2023-04-07T08:21:20;100736.25;;;10.32;85.80
4981;BME280;2507;50.392;7.482;2023-04-07T08:23:45;100739.41;;;10.37;86.81
4981;BME280;2507;50.392;7.482;2023-04-07T08:26:10;100742.75;;;10.51;85.87
4981;BME280;2507;50.392;7.482;2023-04-07T08:28:36;100749.38;;;10.57;85.91
4981;BME280;2507;50.392;7.482;2023-04-07T08:31:01;100758.09;;;10.57;86.04
4981;BME280;2507;50.392;7.482;2023-04-07T08:33:26;100744.34;;;10.79;85.95
4981;BME280;2507;50.392;7.482;2023-04-07T08:35:52;100769.03;;;10.76;84.70
4981;BME280;2507;50.392;7.482;2023-04-07T08:38:17;100745.47;;;10.75;85.18
4981;BME280;2507;50.392;7.482;2023-04-07T08:40:42;100762.81;;;10.77;85.17
4981;BME280;2507;50.392;7.482;2023-04-07T08:43:08;100758.53;;;10.89;84.92
4981;BME280;2507;50.392;7.482;2023-04-07T08:45:38;100759.53;;;10.99;84.64
4981;BME280;2507;50.392;7.482;2023-04-07T08:48:11;100773.72;;;10.96;84.92
4981;BME280;2507;50.392;7.482;2023-04-07T08:50:41;100762.78;;;11.02;84.57
4981;BME280;2507;50.392;7.482;2023-04-07T08:53:09;100765.31;;;11.04;84.63
4981;BME280;2507;50.392;7.482;2023-04-07T08:55:37;100761.63;;;11.06;83.62
4981;BME280;2507;50.392;7.482;2023-04-07T08:58:03;100764.38;;;10.92;83.98
4981;BME280;2507;50.392;7.482;2023-04-07T09:00:28;100765.66;;;10.87;84.46
4981;BME280;2507;50.392;7.482;2023-04-07T09:02:54;100764.06;;;10.84;84.64
4981;BME280;2507;50.392;7.482;2023-04-07T09:05:20;100765.13;;;10.94;85.17
4981;BME280;2507;50.392;7.482;2023-04-07T09:07:45;100768.88;;;11.15;84.83
4981;BME280;2507;50.392;7.482;2023-04-07T09:10:10;100773.59;;;11.10;82.28
4981;BME280;2507;50.392;7.482;2023-04-07T09:12:36;100777.91;;;11.11;82.49
4981;BME280;2507;50.392;7.482;2023-04-07T09:15:04;100765.00;;;11.08;83.07
4981;BME280;2507;50.392;7.482;2023-04-07T09:17:29;100762.91;;;11.01;83.47
4981;BME280;2507;50.392;7.482;2023-04-07T09:19:59;100778.53;;;11.02;83.19
4981;BME280;2507;50.392;7.482;2023-04-07T09:22:43;100774.56;;;10.97;82.75
4981;BME280;2507;50.392;7.482;2023-04-07T09:25:19;100784.66;;;10.90;83.51
4981;BME280;2507;50.392;7.482;2023-04-07T09:30:26;100774.13;;;11.15;81.92
4981;BME280;2507;50.392;7.482;2023-04-07T09:32:51;100774.94;;;11.28;82.08
4981;BME280;2507;50.392;7.482;2023-04-07T09:35:17;100782.31;;;11.23;81.71
4981;BME280;2507;50.392;7.482;2023-04-07T09:37:43;100789.66;;;11.06;82.07
4981;BME280;2507;50.392;7.482;2023-04-07T09:40:09;100790.72;;;11.16;83.13
4981;BME280;2507;50.392;7.482;2023-04-07T09:42:43;100788.91;;;11.16;81.90
4981;BME280;2507;50.392;7.482;2023-04-07T09:45:08;100785.44;;;11.28;80.93
4981;BME280;2507;50.392;7.482;2023-04-07T09:47:34;100788.16;;;11.40;81.82
4981;BME280;2507;50.392;7.482;2023-04-07T09:49:59;100791.00;;;11.60;81.22
4981;BME280;2507;50.392;7.482;2023-04-07T09:52:50;100786.03;;;11.81;80.68
4981;BME280;2507;50.392;7.482;2023-04-07T09:55:22;100790.63;;;11.66;79.79
4981;BME280;2507;50.392;7.482;2023-04-07T09:57:49;100791.34;;;11.56;80.08
4981;BME280;2507;50.392;7.482;2023-04-07T10:00:14;100793.13;;;11.55;80.21
4981;BME280;2507;50.392;7.482;2023-04-07T10:02:40;100791.16;;;11.82;80.66
4981;BME280;2507;50.392;7.482;2023-04-07T10:05:07;100791.91;;;11.84;80.40
4981;BME280;2507;50.392;7.482;2023-04-07T10:07:33;100800.75;;;12.07;81.14
4981;BME280;2507;50.392;7.482;2023-04-07T10:09:59;100793.91;;;12.39;80.42
4981;BME280;2507;50.392;7.482;2023-04-07T10:12:25;100797.31;;;12.52;77.08
4981;BME280;2507;50.392;7.482;2023-04-07T10:14:51;100802.78;;;12.38;76.35
4981;BME280;2507;50.392;7.482;2023-04-07T10:17:17;100817.94;;;12.00;76.98
4981;BME280;2507;50.392;7.482;2023-04-07T10:19:45;100800.50;;;12.10;78.77
4981;BME280;2507;50.392;7.482;2023-04-07T10:22:13;100800.22;;;12.02;77.84
4981;BME280;2507;50.392;7.482;2023-04-07T10:24:49;100811.53;;;12.15;79.76
4981;BME280;2507;50.392;7.482;2023-04-07T10:27:21;100803.81;;;12.24;78.30
4981;BME280;2507;50.392;7.482;2023-04-07T10:29:48;100816.38;;;12.32;78.07
4981;BME280;2507;50.392;7.482;2023-04-07T10:32:15;100814.09;;;12.04;77.22
4981;BME280;2507;50.392;7.482;2023-04-07T10:37:18;100825.31;;;11.95;79.19
4981;BME280;2507;50.392;7.482;2023-04-07T10:39:45;100826.28;;;11.94;78.72
4981;BME280;2507;50.392;7.482;2023-04-07T10:45:02;100821.56;;;12.10;79.87
4981;BME280;2507;50.392;7.482;2023-04-07T10:47:28;100823.50;;;12.19;78.41
4981;BME280;2507;50.392;7.482;2023-04-07T10:52:37;100826.47;;;12.38;76.10
4981;BME280;2507;50.392;7.482;2023-04-07T10:55:31;100831.63;;;12.16;75.79
4981;BME280;2507;50.392;7.482;2023-04-07T11:01:16;100842.00;;;12.06;75.54
4981;BME280;2507;50.392;7.482;2023-04-07T11:03:38;100844.84;;;12.03;76.04
4981;BME280;2507;50.392;7.482;2023-04-07T11:06:04;100845.13;;;12.11;77.80
4981;BME280;2507;50.392;7.482;2023-04-07T11:08:37;100850.16;;;11.91;75.25
4981;BME280;2507;50.392;7.482;2023-04-07T11:11:04;100841.13;;;11.82;77.21
4981;BME280;2507;50.392;7.482;2023-04-07T11:13:46;100850.31;;;11.77;76.99
4981;BME280;2507;50.392;7.482;2023-04-07T11:16:13;100845.84;;;11.90;77.22
4981;BME280;2507;50.392;7.482;2023-04-07T11:18:40;100866.03;;;11.89;77.08
4981;BME280;2507;50.392;7.482;2023-04-07T11:21:06;100863.13;;;11.81;77.47
4981;BME280;2507;50.392;7.482;2023-04-07T11:23:39;100856.78;;;11.84;77.38
4981;BME280;2507;50.392;7.482;2023-04-07T11:26:05;100861.00;;;11.86;77.39
4981;BME280;2507;50.392;7.482;2023-04-07T11:28:31;100848.97;;;11.95;78.33
4981;BME280;2507;50.392;7.482;2023-04-07T11:30:57;100847.91;;;11.97;76.33
4981;BME280;2507;50.392;7.482;2023-04-07T11:33:26;100852.50;;;12.06;76.43
4981;BME280;2507;50.392;7.482;2023-04-07T11:35:57;100855.19;;;12.17;77.97
4981;BME280;2507;50.392;7.482;2023-04-07T11:38:25;100851.25;;;12.47;77.24
4981;BME280;2507;50.392;7.482;2023-04-07T11:40:51;100858.09;;;12.60;76.23
4981;BME280;2507;50.392;7.482;2023-04-07T11:45:45;100850.69;;;13.22;74.19
4981;BME280;2507;50.392;7.482;2023-04-07T11:48:30;100857.06;;;13.30;72.03
4981;BME280;2507;50.392;7.482;2023-04-07T11:50:56;100866.88;;;13.17;72.21
4981;BME280;2507;50.392;7.482;2023-04-07T11:53:28;100858.72;;;13.09;73.46
4981;BME280;2507;50.392;7.482;2023-04-07T11:56:04;100852.00;;;13.05;72.62
4981;BME280;2507;50.392;7.482;2023-04-07T11:58:31;100860.56;;;12.96;71.67
4981;BME280;2507;50.392;7.482;2023-04-07T12:00:57;100857.06;;;13.08;72.12
4981;BME280;2507;50.392;7.482;2023-04-07T12:03:23;100855.88;;;13.12;71.26
4981;BME280;2507;50.392;7.482;2023-04-07T12:05:49;100865.44;;;13.13;72.33
4981;BME280;2507;50.392;7.482;2023-04-07T12:08:14;100855.50;;;13.06;70.81
4981;BME280;2507;50.392;7.482;2023-04-07T12:10:40;100864.88;;;13.43;71.53
4981;BME280;2507;50.392;7.482;2023-04-07T12:13:07;100899.25;;;13.53;69.25
4981;BME280;2507;50.392;7.482;2023-04-07T12:15:33;100867.25;;;13.57;71.38
4981;BME280;2507;50.392;7.482;2023-04-07T12:17:58;100872.53;;;13.57;69.66
4981;BME280;2507;50.392;7.482;2023-04-07T12:20:23;100870.84;;;13.67;70.27
4981;BME280;2507;50.392;7.482;2023-04-07T12:22:49;100913.25;;;13.53;69.33
4981;BME280;2507;50.392;7.482;2023-04-07T12:25:14;100874.09;;;13.38;70.76
4981;BME280;2507;50.392;7.482;2023-04-07T12:27:40;100867.59;;;13.64;71.16
4981;BME280;2507;50.392;7.482;2023-04-07T12:30:06;100874.69;;;13.63;69.01
4981;BME280;2507;50.392;7.482;2023-04-07T12:32:31;100884.13;;;13.44;68.50
4981;BME280;2507;50.392;7.482;2023-04-07T12:34:57;100875.63;;;13.18;69.06
4981;BME280;2507;50.392;7.482;2023-04-07T12:37:23;100877.44;;;13.28;69.04
4981;BME280;2507;50.392;7.482;2023-04-07T12:39:48;100873.47;;;13.23;68.70
4981;BME280;2507;50.392;7.482;2023-04-07T12:42:13;100876.00;;;13.47;69.24
4981;BME280;2507;50.392;7.482;2023-04-07T12:44:39;100873.97;;;13.61;68.75
4981;BME280;2507;50.392;7.482;2023-04-07T12:47:04;100884.00;;;13.78;68.43
4981;BME280;2507;50.392;7.482;2023-04-07T12:49:29;100899.66;;;14.02;66.99
4981;BME280;2507;50.392;7.482;2023-04-07T12:51:55;100884.69;;;14.02;67.08
4981;BME280;2507;50.392;7.482;2023-04-07T12:54:20;100880.88;;;13.84;67.39
4981;BME280;2507;50.392;7.482;2023-04-07T12:56:46;100894.31;;;13.81;65.83
4981;BME280;2507;50.392;7.482;2023-04-07T12:59:12;100882.59;;;13.74;66.17
4981;BME280;2507;50.392;7.482;2023-04-07T13:01:38;100884.69;;;14.02;65.82
4981;BME280;2507;50.392;7.482;2023-04-07T13:04:03;100879.19;;;14.05;64.79
4981;BME280;2507;50.392;7.482;2023-04-07T13:06:29;100887.28;;;14.13;65.97
4981;BME280;2507;50.392;7.482;2023-04-07T13:08:54;100878.28;;;14.59;64.34
4981;BME280;2507;50.392;7.482;2023-04-07T13:11:20;100877.53;;;14.36;64.59
4981;BME280;2507;50.392;7.482;2023-04-07T13:13:46;100881.13;;;14.35;63.79
4981;BME280;2507;50.392;7.482;2023-04-07T13:16:11;100881.16;;;14.13;63.99
4981;BME280;2507;50.392;7.482;2023-04-07T13:18:36;100885.41;;;14.04;65.01
4981;BME280;2507;50.392;7.482;2023-04-07T13:21:01;100876.16;;;14.10;65.75
4981;BME280;2507;50.392;7.482;2023-04-07T13:23:27;100878.47;;;13.92;65.84
4981;BME280;2507;50.392;7.482;2023-04-07T13:25:52;100894.31;;;13.81;66.69
4981;BME280;2507;50.392;7.482;2023-04-07T13:28:18;100884.81;;;13.90;66.79
4981;BME280;2507;50.392;7.482;2023-04-07T13:30:45;100883.97;;;14.00;66.75
4981;BME280;2507;50.392;7.482;2023-04-07T13:33:10;100882.44;;;13.98;66.52
4981;BME280;2507;50.392;7.482;2023-04-07T13:35:36;100879.41;;;13.91;66.43